Hartland, Michigan
Current Conditions -  °F | °C
As of 3:15 PM on Friday 19 Dec 2014 (Local Time) from KOZW Reporting Station
Broken Clouds Broken Clouds  
Wind Chill: 22°   Ceiling: 2200
Heat Index: 28°   Visibility: 10mi
Dew Point: 21°   Wind: 6mph
Humidity: 75%   Direction: 250°WSW
Pressure: 30.23"   Gusts: NA
Location:  42.66°N, 83.75°W
Report Text: KOZW 192015Z AUTO 25005KT 10SM BKN022 M02/M06 A3023 RMK AO2 T10231062
Loading
Personal Weather Stations






























Interactive Weather Map New forecast layout! Learn more

10-Day Weather Forecast

Advertisements
Track Severe Weather on mobile